Time;durP1;ratioP1;P1;durP2;ratioP2;P2;SDS_P1;SDS_P2;PMS_P1;PMS_P2;Temp;Humidity;BMP_temperature;BMP_pressure;BME280_temperature;BME280_humidity;BME280_pressure;Samples;Min_cycle;Max_cycle;Signal;HPM_P1;HPM_P2
2023/04/04 00:00:41;;;;;;;2.30;0.55;;;;;;;;;;5302689;28;20034;-74
2023/04/04 00:03:12;;;;;;;3.00;0.70;;;;;;;;;;5302546;28;20455;-73
2023/04/04 00:05:44;;;;;;;2.95;0.60;;;;;;;;;;5302696;28;20462;-73
2023/04/04 00:08:15;;;;;;;3.08;0.70;;;;;;;;;;5303613;28;20465;-73
2023/04/04 00:10:46;;;;;;;2.85;0.60;;;;;;;;;;5302046;28;20047;-72
2023/04/04 00:13:17;;;;;;;3.80;0.82;;;;;;;;;;5303090;28;20024;-72
2023/04/04 00:15:48;;;;;;;5.53;1.00;;;;;;;;;;5302091;28;20032;-72
2023/04/04 00:18:20;;;;;;;2.08;0.60;;;;;;;;;;5302202;28;20099;-72
2023/04/04 00:20:51;;;;;;;2.42;0.80;;;;;;;;;;5302920;28;20413;-73
2023/04/04 00:23:23;;;;;;;4.35;0.80;;;;;;;;;;5303371;28;20020;-74
2023/04/04 00:25:54;;;;;;;3.80;0.63;;;;;;;;;;5301774;28;20103;-73
2023/04/04 00:28:25;;;;;;;3.95;0.70;;;;;;;;;;5303171;28;20035;-73
2023/04/04 00:30:56;;;;;;;3.92;0.70;;;;;;;;;;5301830;28;20031;-73
2023/04/04 00:33:27;;;;;;;2.75;0.60;;;;;;;;;;5302980;28;20017;-73
2023/04/04 00:35:59;;;;;;;3.26;0.60;;;;;;;;;;5302190;28;20398;-73
2023/04/04 00:38:30;;;;;;;2.47;0.70;;;;;;;;;;5301998;28;20356;-73
2023/04/04 00:41:01;;;;;;;5.93;0.90;;;;;;;;;;5302759;28;20024;-73
2023/04/04 00:43:33;;;;;;;5.35;0.80;;;;;;;;;;5302321;28;20039;-74
2023/04/04 00:46:05;;;;;;;2.45;0.70;;;;;;;;;;5301581;28;20406;-73
2023/04/04 00:48:36;;;;;;;3.47;0.63;;;;;;;;;;5302646;28;20036;-73
2023/04/04 00:51:07;;;;;;;2.70;0.60;;;;;;;;;;5302565;28;20016;-73
2023/04/04 00:53:39;;;;;;;1.92;0.57;;;;;;;;;;5301340;28;20048;-74
2023/04/04 00:56:10;;;;;;;3.45;0.70;;;;;;;;;;5302753;28;20039;-74
2023/04/04 00:58:42;;;;;;;3.70;0.88;;;;;;;;;;5302553;28;20016;-74
2023/04/04 01:01:13;;;;;;;3.22;0.75;;;;;;;;;;5302003;28;20020;-73
2023/04/04 01:03:44;;;;;;;3.42;0.90;;;;;;;;;;5302266;28;20027;-73
2023/04/04 01:06:15;;;;;;;2.35;1.02;;;;;;;;;;5301830;28;20131;-73
2023/04/04 01:08:47;;;;;;;1.15;0.50;;;;;;;;;;5302438;28;20032;-73
2023/04/04 01:11:18;;;;;;;5.18;0.93;;;;;;;;;;5302607;28;20020;-73
2023/04/04 01:13:50;;;;;;;3.97;0.70;;;;;;;;;;5301409;28;20530;-73
2023/04/04 01:16:22;;;;;;;4.40;2.15;;;;;;;;;;5302519;28;20031;-73
2023/04/04 01:18:55;;;;;;;3.73;0.60;;;;;;;;;;5301890;28;20022;-73
2023/04/04 01:21:27;;;;;;;2.10;0.80;;;;;;;;;;5301629;28;20020;-73
2023/04/04 01:24:00;;;;;;;2.03;0.65;;;;;;;;;;5302250;28;20482;-74
2023/04/04 01:26:31;;;;;;;2.05;0.60;;;;;;;;;;5305224;28;20016;-74
2023/04/04 01:29:02;;;;;;;2.33;0.60;;;;;;;;;;5305289;28;20027;-73
2023/04/04 01:31:36;;;;;;;2.05;0.63;;;;;;;;;;5306029;28;20020;-73
2023/04/04 01:34:22;;;;;;;1.77;0.50;;;;;;;;;;5305383;28;20020;-74
2023/04/04 01:37:02;;;;;;;3.13;0.68;;;;;;;;;;5305696;28;20453;-74
2023/04/04 01:39:47;;;;;;;4.32;0.70;;;;;;;;;;5306006;28;20028;-73
2023/04/04 01:42:18;;;;;;;2.38;0.60;;;;;;;;;;5305500;28;20020;-74
2023/04/04 01:44:54;;;;;;;2.20;0.70;;;;;;;;;;5305616;28;20028;-73
2023/04/04 01:47:26;;;;;;;3.95;0.77;;;;;;;;;;5306121;28;20023;-73
2023/04/04 01:49:57;;;;;;;3.30;0.60;;;;;;;;;;5304492;28;20237;-73
2023/04/04 01:52:28;;;;;;;1.80;0.50;;;;;;;;;;5305798;28;20058;-74
2023/04/04 01:54:59;;;;;;;2.13;0.63;;;;;;;;;;5305191;28;20471;-73
2023/04/04 01:57:30;;;;;;;2.68;0.98;;;;;;;;;;5304913;28;20466;-73
2023/04/04 02:00:02;;;;;;;3.47;0.93;;;;;;;;;;5305467;28;20459;-73
2023/04/04 02:02:33;;;;;;;3.03;0.52;;;;;;;;;;5304621;28;20032;-74
2023/04/04 02:05:04;;;;;;;3.20;0.70;;;;;;;;;;5305419;28;20078;-73
2023/04/04 02:07:36;;;;;;;2.37;0.60;;;;;;;;;;5305149;28;20020;-73
2023/04/04 02:10:07;;;;;;;3.57;0.80;;;;;;;;;;5304725;28;20447;-73
2023/04/04 02:12:38;;;;;;;2.20;0.63;;;;;;;;;;5305074;28;20048;-75
2023/04/04 02:15:10;;;;;;;2.55;0.65;;;;;;;;;;5305373;28;20020;-73
2023/04/04 02:17:46;;;;;;;4.18;1.05;;;;;;;;;;5304203;28;20024;-72
2023/04/04 02:20:18;;;;;;;2.93;0.60;;;;;;;;;;5305630;28;20377;-74
2023/04/04 02:22:50;;;;;;;1.37;0.60;;;;;;;;;;5304740;28;20044;-73
2023/04/04 02:25:22;;;;;;;4.40;0.80;;;;;;;;;;5304428;28;20027;-74
2023/04/04 02:27:54;;;;;;;2.73;0.60;;;;;;;;;;5305044;28;20016;-74
2023/04/04 02:30:25;;;;;;;5.33;0.70;;;;;;;;;;5304689;28;20374;-74
2023/04/04 02:32:58;;;;;;;3.07;0.60;;;;;;;;;;5304512;28;20023;-73
2023/04/04 02:35:29;;;;;;;2.67;0.80;;;;;;;;;;5304851;28;20031;-74
2023/04/04 02:38:01;;;;;;;2.47;0.70;;;;;;;;;;5303323;28;20091;-74
2023/04/04 02:40:32;;;;;;;5.63;0.80;;;;;;;;;;5304839;28;20027;-74
2023/04/04 02:43:03;;;;;;;2.43;0.80;;;;;;;;;;5304713;28;20049;-73
2023/04/04 02:45:34;;;;;;;3.22;0.70;;;;;;;;;;5303863;28;20019;-73
2023/04/04 02:48:06;;;;;;;4.27;0.60;;;;;;;;;;5304562;28;20024;-73
2023/04/04 02:50:37;;;;;;;5.00;0.90;;;;;;;;;;5304263;28;20099;-74
2023/04/04 02:53:08;;;;;;;2.53;0.53;;;;;;;;;;5303834;28;20165;-74
2023/04/04 02:55:40;;;;;;;3.10;0.97;;;;;;;;;;5304232;28;20471;-73
2023/04/04 02:58:11;;;;;;;2.83;0.80;;;;;;;;;;5304764;28;20008;-73
2023/04/04 03:00:42;;;;;;;4.80;1.83;;;;;;;;;;5303151;28;20064;-73
2023/04/04 03:03:13;;;;;;;4.40;1.20;;;;;;;;;;5304536;28;20109;-73
2023/04/04 03:05:45;;;;;;;2.80;0.60;;;;;;;;;;5303093;28;20107;-74
2023/04/04 03:08:16;;;;;;;3.00;0.80;;;;;;;;;;5304683;28;20017;-74
2023/04/04 03:10:47;;;;;;;3.30;0.70;;;;;;;;;;5303685;28;20013;-73
2023/04/04 03:13:19;;;;;;;4.67;0.80;;;;;;;;;;5303382;28;20592;-73
2023/04/04 03:15:50;;;;;;;3.67;0.70;;;;;;;;;;5303864;28;20106;-73
2023/04/04 03:18:21;;;;;;;6.40;0.70;;;;;;;;;;5304173;28;20024;-73
2023/04/04 03:20:52;;;;;;;3.13;0.60;;;;;;;;;;5302837;28;20351;-74
2023/04/04 03:23:24;;;;;;;3.10;0.90;;;;;;;;;;5304265;28;20024;-75
2023/04/04 03:25:55;;;;;;;3.23;0.93;;;;;;;;;;5303413;28;20032;-75
2023/04/04 03:28:26;;;;;;;3.82;0.80;;;;;;;;;;5303581;28;20045;-74
2023/04/04 03:31:01;;;;;;;2.10;0.70;;;;;;;;;;5303586;28;20043;-75
2023/04/04 03:33:37;;;;;;;2.93;0.70;;;;;;;;;;5303601;28;20103;-75
2023/04/04 03:36:11;;;;;;;2.70;0.70;;;;;;;;;;5302828;28;20051;-74
2023/04/04 03:38:42;;;;;;;3.43;0.73;;;;;;;;;;5303379;28;20062;-74
2023/04/04 03:41:14;;;;;;;3.77;0.97;;;;;;;;;;5303265;28;20112;-74
2023/04/04 03:43:45;;;;;;;3.47;0.70;;;;;;;;;;5303185;28;20016;-74
2023/04/04 03:46:16;;;;;;;2.27;0.63;;;;;;;;;;5303703;28;20016;-73
2023/04/04 03:48:47;;;;;;;2.37;0.60;;;;;;;;;;5301202;28;20024;-74
2023/04/04 03:51:22;;;;;;;3.27;0.80;;;;;;;;;;5303941;28;20028;-74
2023/04/04 03:53:53;;;;;;;4.17;0.80;;;;;;;;;;5302862;28;20048;-74
2023/04/04 03:56:25;;;;;;;3.10;0.70;;;;;;;;;;5302763;28;20042;-74
2023/04/04 03:58:56;;;;;;;3.47;0.60;;;;;;;;;;5303049;28;20019;-74
2023/04/04 04:01:27;;;;;;;2.87;0.70;;;;;;;;;;5303442;28;20026;-73
2023/04/04 04:03:59;;;;;;;1.98;0.70;;;;;;;;;;5302123;28;20034;-73
2023/04/04 04:06:31;;;;;;;2.63;1.03;;;;;;;;;;5303244;28;20020;-73
2023/04/04 04:09:02;;;;;;;2.77;0.80;;;;;;;;;;5302159;28;20020;-74
2023/04/04 04:11:33;;;;;;;4.43;0.77;;;;;;;;;;5303052;28;20028;-73
2023/04/04 04:14:05;;;;;;;2.50;0.90;;;;;;;;;;5302871;28;20482;-73
2023/04/04 04:16:38;;;;;;;2.97;0.80;;;;;;;;;;5302091;28;20036;-73
2023/04/04 04:19:09;;;;;;;4.33;0.70;;;;;;;;;;5303423;28;20016;-73
2023/04/04 04:21:41;;;;;;;3.53;0.70;;;;;;;;;;5302649;28;20111;-73
2023/04/04 04:24:12;;;;;;;4.90;0.87;;;;;;;;;;5302247;28;20027;-73
2023/04/04 04:26:43;;;;;;;3.10;0.80;;;;;;;;;;5302725;28;20032;-73
2023/04/04 04:29:15;;;;;;;4.03;1.00;;;;;;;;;;5303043;28;20055;-73
2023/04/04 04:31:46;;;;;;;2.53;0.70;;;;;;;;;;5301852;28;20367;-72
2023/04/04 04:34:17;;;;;;;3.47;1.30;;;;;;;;;;5302997;28;20026;-73
2023/04/04 04:36:49;;;;;;;3.47;1.00;;;;;;;;;;5302221;28;20040;-73
2023/04/04 04:39:20;;;;;;;2.27;0.80;;;;;;;;;;5302466;28;20016;-73
2023/04/04 04:41:52;;;;;;;4.07;0.87;;;;;;;;;;5302574;28;20022;-74
2023/04/04 04:44:23;;;;;;;2.17;0.90;;;;;;;;;;5302161;28;20023;-73
2023/04/04 04:46:54;;;;;;;2.83;1.03;;;;;;;;;;5302505;28;20050;-74
2023/04/04 04:49:26;;;;;;;3.17;1.10;;;;;;;;;;5302938;28;20020;-74
2023/04/04 04:51:57;;;;;;;2.60;0.77;;;;;;;;;;5301526;28;20020;-74
2023/04/04 04:54:28;;;;;;;3.00;1.43;;;;;;;;;;5302724;28;20127;-73
2023/04/04 04:57:00;;;;;;;5.33;1.00;;;;;;;;;;5302168;28;20028;-73
2023/04/04 04:59:31;;;;;;;3.40;0.80;;;;;;;;;;5301588;28;20524;-74
2023/04/04 05:02:02;;;;;;;3.70;1.00;;;;;;;;;;5306445;28;20022;-73
2023/04/04 05:04:34;;;;;;;5.00;1.40;;;;;;;;;;5306679;28;20018;-74
2023/04/04 05:07:07;;;;;;;3.07;1.00;;;;;;;;;;5305546;28;20072;-73
2023/04/04 05:09:38;;;;;;;3.63;0.83;;;;;;;;;;5306014;28;20012;-74
2023/04/04 05:12:09;;;;;;;3.60;1.13;;;;;;;;;;5305501;28;20020;-75
2023/04/04 05:14:40;;;;;;;3.83;1.90;;;;;;;;;;5306365;28;20020;-73
2023/04/04 05:17:11;;;;;;;3.43;1.07;;;;;;;;;;5306434;28;20043;-73
2023/04/04 05:19:43;;;;;;;4.60;0.90;;;;;;;;;;5305168;28;20378;-73
2023/04/04 05:22:14;;;;;;;4.33;1.30;;;;;;;;;;5306370;28;20035;-73
2023/04/04 05:24:45;;;;;;;4.50;1.10;;;;;;;;;;5305759;28;20077;-73
2023/04/04 05:27:16;;;;;;;4.76;1.10;;;;;;;;;;5305746;28;20107;-73
2023/04/04 05:29:47;;;;;;;2.97;1.40;;;;;;;;;;5305859;28;20053;-73
2023/04/04 05:32:19;;;;;;;8.50;2.27;;;;;;;;;;5306153;28;20016;-74
2023/04/04 05:34:50;;;;;;;6.30;2.27;;;;;;;;;;5304848;28;20405;-75
2023/04/04 05:37:21;;;;;;;5.53;0.90;;;;;;;;;;5305988;28;20043;-75
2023/04/04 05:39:52;;;;;;;2.80;1.50;;;;;;;;;;5305411;28;20051;-75
2023/04/04 05:42:24;;;;;;;6.10;1.17;;;;;;;;;;5305240;28;20475;-74
2023/04/04 05:44:55;;;;;;;2.93;1.10;;;;;;;;;;5305323;28;20020;-74
2023/04/04 05:47:26;;;;;;;2.80;1.10;;;;;;;;;;5305130;28;20382;-73
2023/04/04 05:49:57;;;;;;;4.38;1.40;;;;;;;;;;5305646;28;20113;-74
2023/04/04 05:52:28;;;;;;;6.00;1.23;;;;;;;;;;5305594;28;20036;-74
2023/04/04 05:55:00;;;;;;;3.10;0.90;;;;;;;;;;5304511;28;20012;-75
2023/04/04 05:57:31;;;;;;;6.80;1.63;;;;;;;;;;5305456;28;20012;-75
2023/04/04 06:00:08;;;;;;;5.18;1.38;;;;;;;;;;5301835;28;20035;-74
2023/04/04 06:02:39;;;;;;;3.05;1.33;;;;;;;;;;5304069;28;20020;-74
2023/04/04 06:05:10;;;;;;;6.12;1.20;;;;;;;;;;5305102;28;20028;-73
2023/04/04 06:07:41;;;;;;;5.18;1.15;;;;;;;;;;5304901;28;20024;-74
2023/04/04 06:10:13;;;;;;;3.78;1.40;;;;;;;;;;5304577;28;20016;-76
2023/04/04 06:12:44;;;;;;;3.63;1.15;;;;;;;;;;5301656;28;20024;-76
2023/04/04 06:15:16;;;;;;;3.65;1.60;;;;;;;;;;5305136;28;20039;-76
2023/04/04 06:17:47;;;;;;;2.67;1.00;;;;;;;;;;5286027;28;20421;-74
2023/04/04 06:20:20;;;;;;;3.67;1.50;;;;;;;;;;5305024;28;20027;-75
2023/04/04 06:22:52;;;;;;;5.78;1.30;;;;;;;;;;5303801;28;20494;-75
2023/04/04 06:25:23;;;;;;;3.17;1.08;;;;;;;;;;5305329;28;20024;-75
2023/04/04 06:27:54;;;;;;;4.13;1.25;;;;;;;;;;5304557;28;20012;-74
2023/04/04 06:30:25;;;;;;;3.75;1.60;;;;;;;;;;5304154;28;20070;-74
2023/04/04 06:32:57;;;;;;;4.55;1.42;;;;;;;;;;5303894;28;20024;-73
2023/04/04 06:35:28;;;;;;;3.08;0.95;;;;;;;;;;5304760;28;20035;-75
2023/04/04 06:37:59;;;;;;;3.45;1.08;;;;;;;;;;5303390;28;20046;-74
2023/04/04 06:40:31;;;;;;;3.60;1.45;;;;;;;;;;5303790;28;20487;-76
2023/04/04 06:43:02;;;;;;;2.75;1.38;;;;;;;;;;5304219;28;20471;-74
2023/04/04 06:45:34;;;;;;;4.50;1.60;;;;;;;;;;5303498;28;20020;-74
2023/04/04 06:48:05;;;;;;;3.42;1.70;;;;;;;;;;5305077;28;20561;-74
2023/04/04 06:50:37;;;;;;;6.57;1.63;;;;;;;;;;5303943;28;20016;-74
2023/04/04 06:53:08;;;;;;;5.93;1.55;;;;;;;;;;5304125;28;20040;-75
2023/04/04 06:55:40;;;;;;;3.28;1.23;;;;;;;;;;5303888;28;20028;-72
2023/04/04 06:58:11;;;;;;;4.30;1.40;;;;;;;;;;5303650;28;20039;-72
2023/04/04 07:00:42;;;;;;;3.20;1.23;;;;;;;;;;5303750;28;20081;-71
2023/04/04 07:03:13;;;;;;;3.40;1.42;;;;;;;;;;5304737;28;20024;-70
2023/04/04 07:05:45;;;;;;;3.70;1.60;;;;;;;;;;5303171;28;20019;-71
2023/04/04 07:08:16;;;;;;;4.40;1.55;;;;;;;;;;5304141;28;20069;-70
2023/04/04 07:10:47;;;;;;;6.20;1.30;;;;;;;;;;5303290;28;20012;-70
2023/04/04 07:13:19;;;;;;;3.45;1.42;;;;;;;;;;5303484;28;20462;-69
2023/04/04 07:15:50;;;;;;;3.60;1.33;;;;;;;;;;5303532;28;20032;-68
2023/04/04 07:18:21;;;;;;;3.10;1.30;;;;;;;;;;5304135;28;20099;-69
2023/04/04 07:20:52;;;;;;;3.53;1.05;;;;;;;;;;5300385;28;20042;-70
2023/04/04 07:23:24;;;;;;;5.07;1.33;;;;;;;;;;5301456;28;20016;-69
2023/04/04 07:25:55;;;;;;;3.92;1.58;;;;;;;;;;5300442;28;20043;-70
2023/04/04 07:28:26;;;;;;;3.95;1.05;;;;;;;;;;5301600;28;20095;-70
2023/04/04 07:30:58;;;;;;;5.03;1.30;;;;;;;;;;5300876;28;20019;-70
2023/04/04 07:33:29;;;;;;;3.90;1.40;;;;;;;;;;5300640;28;20020;-70
2023/04/04 07:36:02;;;;;;;6.15;1.55;;;;;;;;;;5303390;28;20087;-71
2023/04/04 07:38:33;;;;;;;4.13;1.20;;;;;;;;;;5303393;28;20020;-71
2023/04/04 07:41:04;;;;;;;2.78;1.25;;;;;;;;;;5302569;28;20072;-70
2023/04/04 07:43:36;;;;;;;6.65;1.00;;;;;;;;;;5303257;28;20012;-71
2023/04/04 07:46:07;;;;;;;4.18;1.10;;;;;;;;;;5303056;28;20378;-71
2023/04/04 07:48:38;;;;;;;3.95;1.17;;;;;;;;;;5302159;28;20057;-70
2023/04/04 07:51:10;;;;;;;4.38;1.08;;;;;;;;;;5303576;28;20031;-71
2023/04/04 07:53:41;;;;;;;4.00;1.00;;;;;;;;;;5302817;28;20044;-71
2023/04/04 07:56:12;;;;;;;3.88;1.20;;;;;;;;;;5302513;28;20286;-72
2023/04/04 07:58:43;;;;;;;5.23;1.23;;;;;;;;;;5302610;28;20099;-70
2023/04/04 08:01:14;;;;;;;2.65;0.80;;;;;;;;;;5302507;28;20277;-70
2023/04/04 08:03:45;;;;;;;4.20;0.80;;;;;;;;;;5302676;28;20269;-70
2023/04/04 08:06:17;;;;;;;6.15;1.00;;;;;;;;;;5303488;28;20366;-70
2023/04/04 08:08:48;;;;;;;3.63;0.77;;;;;;;;;;5301679;28;20121;-70
2023/04/04 08:11:20;;;;;;;3.55;0.85;;;;;;;;;;5302948;28;20772;-70
2023/04/04 08:13:51;;;;;;;4.30;0.80;;;;;;;;;;5302223;28;20095;-70
2023/04/04 08:16:22;;;;;;;4.40;0.80;;;;;;;;;;5298570;28;20494;-70
2023/04/04 08:18:54;;;;;;;3.03;0.90;;;;;;;;;;5299639;28;20016;-70
2023/04/04 08:21:25;;;;;;;2.67;0.70;;;;;;;;;;5320472;28;20493;-70
2023/04/04 08:23:56;;;;;;;2.27;0.70;;;;;;;;;;5322833;28;21037;-70
2023/04/04 08:26:28;;;;;;;2.23;0.70;;;;;;;;;;5323880;28;20300;-70
2023/04/04 08:28:59;;;;;;;2.95;0.80;;;;;;;;;;5323539;28;20319;-70
2023/04/04 08:31:30;;;;;;;3.47;0.65;;;;;;;;;;5322727;28;20110;-70
2023/04/04 08:34:02;;;;;;;2.40;0.70;;;;;;;;;;5323772;28;20026;-70
2023/04/04 08:36:33;;;;;;;3.63;0.90;;;;;;;;;;5325969;28;20136;-70
2023/04/04 08:39:05;;;;;;;2.72;0.70;;;;;;;;;;5327197;28;20023;-70
2023/04/04 08:41:37;;;;;;;3.47;0.60;;;;;;;;;;5318517;28;20023;-70
2023/04/04 08:44:11;;;;;;;4.22;0.70;;;;;;;;;;5305995;28;20024;-70
2023/04/04 08:46:44;;;;;;;3.72;0.70;;;;;;;;;;5306710;28;20012;-71
2023/04/04 08:49:20;;;;;;;2.67;0.60;;;;;;;;;;5307242;28;20043;-71
2023/04/04 08:51:52;;;;;;;2.83;0.60;;;;;;;;;;5306143;28;20035;-70
2023/04/04 08:54:24;;;;;;;2.53;0.50;;;;;;;;;;5306877;28;20082;-71
2023/04/04 08:56:56;;;;;;;2.90;0.60;;;;;;;;;;5305964;28;20386;-70
2023/04/04 08:59:27;;;;;;;2.65;0.50;;;;;;;;;;5305921;28;20012;-69
2023/04/04 09:02:08;;;;;;;3.05;0.70;;;;;;;;;;5306165;28;20185;-70
2023/04/04 09:04:40;;;;;;;4.35;0.70;;;;;;;;;;5305469;28;20028;-70
2023/04/04 09:07:11;;;;;;;4.32;0.57;;;;;;;;;;5306714;28;20027;-70
2023/04/04 09:09:46;;;;;;;2.38;0.50;;;;;;;;;;5305932;28;20012;-69
2023/04/04 09:12:17;;;;;;;3.22;0.70;;;;;;;;;;5305826;28;20016;-70
2023/04/04 09:14:50;;;;;;;2.30;0.55;;;;;;;;;;5305596;28;20084;-71
2023/04/04 09:17:22;;;;;;;1.77;0.45;;;;;;;;;;5306346;28;20032;-70
2023/04/04 09:20:03;;;;;;;1.83;0.50;;;;;;;;;;5305330;28;20024;-71
2023/04/04 09:22:34;;;;;;;2.10;0.43;;;;;;;;;;5317553;28;20011;-71
2023/04/04 09:25:06;;;;;;;1.85;0.50;;;;;;;;;;5327060;28;20031;-71
2023/04/04 09:27:37;;;;;;;3.00;0.50;;;;;;;;;;5326295;28;20269;-71
2023/04/04 09:30:09;;;;;;;2.58;0.70;;;;;;;;;;5327621;28;20020;-70
2023/04/04 09:32:40;;;;;;;3.08;0.52;;;;;;;;;;5325961;28;20031;-70
2023/04/04 09:35:14;;;;;;;3.08;0.50;;;;;;;;;;5327708;28;20068;-70
2023/04/04 09:37:46;;;;;;;1.48;0.40;;;;;;;;;;5326542;28;20492;-70
2023/04/04 09:40:17;;;;;;;1.98;0.50;;;;;;;;;;5326720;28;20008;-70
2023/04/04 09:42:49;;;;;;;2.72;0.57;;;;;;;;;;5326426;28;20406;-71
2023/04/04 09:45:22;;;;;;;2.80;0.50;;;;;;;;;;5327331;28;20053;-71
2023/04/04 09:47:54;;;;;;;3.45;0.55;;;;;;;;;;5325610;28;20408;-70
2023/04/04 09:50:27;;;;;;;2.25;0.52;;;;;;;;;;5327443;28;20023;-71
2023/04/04 09:52:59;;;;;;;2.85;0.57;;;;;;;;;;5325926;28;20047;-71
2023/04/04 09:55:36;;;;;;;2.00;0.47;;;;;;;;;;5325792;28;20039;-71
2023/04/04 09:58:14;;;;;;;2.08;0.57;;;;;;;;;;5326445;28;20088;-71
2023/04/04 10:00:47;;;;;;;2.67;0.60;;;;;;;;;;5326013;28;20044;-69
2023/04/04 10:03:20;;;;;;;4.28;0.50;;;;;;;;;;5326495;28;20019;-69
2023/04/04 10:06:09;;;;;;;2.35;0.50;;;;;;;;;;5326184;28;20093;-70
2023/04/04 10:08:42;;;;;;;2.00;0.45;;;;;;;;;;5325745;28;20023;-71
2023/04/04 10:11:26;;;;;;;1.40;0.50;;;;;;;;;;5326795;28;20039;-69
2023/04/04 10:13:57;;;;;;;2.65;0.40;;;;;;;;;;5325835;28;20832;-70
2023/04/04 10:16:33;;;;;;;2.30;0.47;;;;;;;;;;5326017;28;20028;-73
2023/04/04 10:19:07;;;;;;;3.83;0.60;;;;;;;;;;5325746;28;20030;-70
2023/04/04 10:21:39;;;;;;;3.53;0.50;;;;;;;;;;5324977;28;20019;-70
2023/04/04 10:24:10;;;;;;;2.42;0.80;;;;;;;;;;5326594;28;20023;-70
2023/04/04 10:26:42;;;;;;;3.05;0.60;;;;;;;;;;5325388;28;20088;-70
2023/04/04 10:29:14;;;;;;;5.07;0.63;;;;;;;;;;5325840;28;20386;-70
2023/04/04 10:31:46;;;;;;;4.25;0.60;;;;;;;;;;5324934;28;20030;-70
2023/04/04 10:34:24;;;;;;;3.38;0.70;;;;;;;;;;5304991;28;20370;-70
2023/04/04 10:37:08;;;;;;;3.10;0.68;;;;;;;;;;5303656;28;20040;-71
2023/04/04 10:39:50;;;;;;;3.30;0.50;;;;;;;;;;5304360;28;20024;-70
2023/04/04 10:42:23;;;;;;;3.03;0.70;;;;;;;;;;5304967;28;20020;-71
2023/04/04 10:44:54;;;;;;;3.92;0.60;;;;;;;;;;5303486;28;20039;-70
2023/04/04 10:47:28;;;;;;;1.40;0.50;;;;;;;;;;5304646;28;20089;-70
2023/04/04 10:49:59;;;;;;;2.72;0.68;;;;;;;;;;5304098;28;20023;-71
2023/04/04 10:52:31;;;;;;;4.10;0.60;;;;;;;;;;5304232;28;20036;-70
2023/04/04 10:55:05;;;;;;;2.55;0.80;;;;;;;;;;5304381;28;20096;-70
2023/04/04 10:57:39;;;;;;;2.28;0.50;;;;;;;;;;5302961;28;20486;-69
2023/04/04 11:00:16;;;;;;;3.15;0.60;;;;;;;;;;5304065;28;20111;-69
2023/04/04 11:02:58;;;;;;;2.35;0.55;;;;;;;;;;5303815;28;20026;-70
2023/04/04 11:05:29;;;;;;;2.55;0.50;;;;;;;;;;5303273;28;20379;-70
2023/04/04 11:08:05;;;;;;;2.78;0.73;;;;;;;;;;5303837;28;20027;-70
2023/04/04 11:10:43;;;;;;;2.55;0.57;;;;;;;;;;5303732;28;20027;-69
2023/04/04 11:13:21;;;;;;;4.28;0.60;;;;;;;;;;5303417;28;20515;-70
2023/04/04 11:16:08;;;;;;;3.65;0.60;;;;;;;;;;5303657;28;20150;-71
2023/04/04 11:18:44;;;;;;;3.22;0.52;;;;;;;;;;5302803;28;20055;-70
2023/04/04 11:21:17;;;;;;;2.03;0.50;;;;;;;;;;5323810;28;20031;-70
2023/04/04 11:23:48;;;;;;;3.35;0.50;;;;;;;;;;5324741;28;20020;-71
2023/04/04 11:26:23;;;;;;;2.60;0.60;;;;;;;;;;5324349;28;20031;-71
2023/04/04 11:28:55;;;;;;;3.33;0.50;;;;;;;;;;5323361;28;20015;-71
2023/04/04 11:31:27;;;;;;;2.88;0.65;;;;;;;;;;5323294;28;20099;-71
2023/04/04 11:34:08;;;;;;;1.95;0.50;;;;;;;;;;5323522;28;20019;-71
2023/04/04 11:36:40;;;;;;;2.47;0.60;;;;;;;;;;5324404;28;20154;-70
2023/04/04 11:39:15;;;;;;;2.45;0.47;;;;;;;;;;5324299;28;20019;-71
2023/04/04 11:41:47;;;;;;;2.35;0.55;;;;;;;;;;5324217;28;20019;-71
2023/04/04 11:44:20;;;;;;;2.45;1.02;;;;;;;;;;5324964;28;20030;-72
2023/04/04 11:47:10;;;;;;;2.38;0.55;;;;;;;;;;5323567;28;20024;-71
2023/04/04 11:49:41;;;;;;;2.30;0.50;;;;;;;;;;5324127;28;20370;-72
2023/04/04 11:52:14;;;;;;;2.53;0.60;;;;;;;;;;5324595;28;20020;-71
2023/04/04 11:54:45;;;;;;;3.78;0.55;;;;;;;;;;5323289;28;20015;-71
2023/04/04 11:57:18;;;;;;;2.65;0.70;;;;;;;;;;5324561;28;20466;-71
2023/04/04 11:59:50;;;;;;;1.63;0.47;;;;;;;;;;5308044;28;20012;-72
2023/04/04 12:02:23;;;;;;;1.73;0.50;;;;;;;;;;5301850;28;20027;-73
2023/04/04 12:04:54;;;;;;;3.90;0.70;;;;;;;;;;5316348;28;20458;-72
2023/04/04 12:07:27;;;;;;;1.60;0.52;;;;;;;;;;5323659;28;20114;-72
2023/04/04 12:09:59;;;;;;;2.88;0.60;;;;;;;;;;5322553;28;20133;-71
2023/04/04 12:12:30;;;;;;;2.50;0.70;;;;;;;;;;5323792;28;20110;-71
2023/04/04 12:15:01;;;;;;;2.15;0.68;;;;;;;;;;5322818;28;20482;-71
2023/04/04 12:17:36;;;;;;;3.45;0.80;;;;;;;;;;5323971;28;20057;-73
2023/04/04 12:20:09;;;;;;;2.10;0.50;;;;;;;;;;5323188;28;20019;-73
2023/04/04 12:22:40;;;;;;;2.53;0.63;;;;;;;;;;5322692;28;20099;-72
2023/04/04 12:25:11;;;;;;;2.55;0.60;;;;;;;;;;5323722;28;20134;-72
2023/04/04 12:27:43;;;;;;;2.33;0.60;;;;;;;;;;5323696;28;20039;-72
2023/04/04 12:30:15;;;;;;;2.38;0.52;;;;;;;;;;5323031;28;20462;-72
2023/04/04 12:32:48;;;;;;;2.30;0.70;;;;;;;;;;5323506;28;20395;-71
2023/04/04 12:35:19;;;;;;;3.17;0.50;;;;;;;;;;5323126;28;20452;-71
2023/04/04 12:37:58;;;;;;;6.55;0.63;;;;;;;;;;5323360;28;20081;-72
2023/04/04 12:40:35;;;;;;;2.63;0.70;;;;;;;;;;5323575;28;20535;-71
2023/04/04 12:43:07;;;;;;;2.38;0.70;;;;;;;;;;5323178;28;20463;-71
2023/04/04 12:45:39;;;;;;;1.92;0.60;;;;;;;;;;5323113;28;20054;-72
2023/04/04 12:48:11;;;;;;;2.67;0.93;;;;;;;;;;5323865;28;20027;-71
2023/04/04 12:50:50;;;;;;;3.10;0.80;;;;;;;;;;5322489;28;20400;-71
2023/04/04 12:53:22;;;;;;;;;;;;;;;;;;5324121;28;20063;-71
2023/04/04 12:55:54;;;;;;;3.83;0.68;;;;;;;;;;5323046;28;19915;-69
2023/04/04 12:58:26;;;;;;;2.90;0.50;;;;;;;;;;5304340;28;20474;-68
2023/04/04 13:00:58;;;;;;;3.35;0.75;;;;;;;;;;5322139;28;20027;-68
2023/04/04 13:03:29;;;;;;;2.58;0.60;;;;;;;;;;5322381;28;20019;-68
2023/04/04 13:06:01;;;;;;;3.50;0.70;;;;;;;;;;5323179;28;20026;-68
2023/04/04 13:08:32;;;;;;;2.47;0.70;;;;;;;;;;5323065;28;20016;-67
2023/04/04 13:11:05;;;;;;;3.67;0.77;;;;;;;;;;5322376;28;20420;-70
2023/04/04 13:13:37;;;;;;;3.58;0.73;;;;;;;;;;5323165;28;20100;-70
2023/04/04 13:16:09;;;;;;;4.47;0.63;;;;;;;;;;5323441;28;20084;-70
2023/04/04 13:18:42;;;;;;;4.78;0.60;;;;;;;;;;5322120;28;20020;-69
2023/04/04 13:21:13;;;;;;;4.00;0.88;;;;;;;;;;5323370;28;20458;-71
2023/04/04 13:23:45;;;;;;;3.15;0.82;;;;;;;;;;5327364;28;20104;-70
2023/04/04 13:26:16;;;;;;;2.97;0.70;;;;;;;;;;5326929;28;20019;-70
2023/04/04 13:28:47;;;;;;;5.10;0.85;;;;;;;;;;5327295;28;20481;-70
2023/04/04 13:31:18;;;;;;;2.83;0.82;;;;;;;;;;5327668;28;20382;-70
2023/04/04 13:33:49;;;;;;;2.42;0.85;;;;;;;;;;5326312;28;20015;-70
2023/04/04 13:36:21;;;;;;;2.50;0.70;;;;;;;;;;5327377;28;20073;-70
2023/04/04 13:38:52;;;;;;;3.03;0.55;;;;;;;;;;5326358;28;20023;-70
2023/04/04 13:41:23;;;;;;;1.83;0.73;;;;;;;;;;5327527;28;20012;-70
2023/04/04 13:43:55;;;;;;;1.77;0.70;;;;;;;;;;5326581;28;20103;-71
2023/04/04 13:46:26;;;;;;;4.55;0.80;;;;;;;;;;5326552;28;20098;-70
2023/04/04 13:48:57;;;;;;;7.00;1.17;;;;;;;;;;5326506;28;20099;-71
2023/04/04 13:51:28;;;;;;;2.58;0.70;;;;;;;;;;5327238;28;20055;-70
2023/04/04 13:54:00;;;;;;;3.67;1.10;;;;;;;;;;5325503;28;20043;-69
2023/04/04 13:56:31;;;;;;;3.58;0.60;;;;;;;;;;5304524;28;20093;-70
2023/04/04 13:59:02;;;;;;;2.15;0.75;;;;;;;;;;5305149;28;20272;-69
2023/04/04 14:01:33;;;;;;;3.95;0.82;;;;;;;;;;5304742;28;20024;-69
2023/04/04 14:04:04;;;;;;;7.90;0.88;;;;;;;;;;5305457;28;20035;-69
2023/04/04 14:06:36;;;;;;;2.63;0.80;;;;;;;;;;5305229;28;20183;-70
2023/04/04 14:09:07;;;;;;;2.17;0.70;;;;;;;;;;5304586;28;20028;-69
2023/04/04 14:11:38;;;;;;;2.28;0.70;;;;;;;;;;5304513;28;20285;-69
2023/04/04 14:14:09;;;;;;;3.30;1.10;;;;;;;;;;5306446;28;20062;-69
2023/04/04 14:16:40;;;;;;;2.95;0.85;;;;;;;;;;5325373;28;20041;-69
2023/04/04 14:19:12;;;;;;;3.28;1.10;;;;;;;;;;5326309;28;20463;-69
2023/04/04 14:21:43;;;;;;;6.03;1.05;;;;;;;;;;5324734;28;20382;-70
2023/04/04 14:24:14;;;;;;;2.75;0.70;;;;;;;;;;5326183;28;20024;-70
2023/04/04 14:26:45;;;;;;;3.97;1.00;;;;;;;;;;5325381;28;20043;-70
2023/04/04 14:29:16;;;;;;;3.92;0.95;;;;;;;;;;5325945;28;20412;-69
2023/04/04 14:31:48;;;;;;;2.33;0.80;;;;;;;;;;5325372;28;20288;-70
2023/04/04 14:34:19;;;;;;;3.28;0.90;;;;;;;;;;5325267;28;20019;-70
2023/04/04 14:36:50;;;;;;;2.40;0.88;;;;;;;;;;5320742;28;20035;-70
2023/04/04 14:39:21;;;;;;;3.15;1.00;;;;;;;;;;5320104;28;20079;-68
2023/04/04 14:41:52;;;;;;;2.33;0.88;;;;;;;;;;5300755;28;20444;-69
2023/04/04 14:44:24;;;;;;;2.85;0.90;;;;;;;;;;5302375;28;20576;-69
2023/04/04 14:46:55;;;;;;;2.72;1.00;;;;;;;;;;5327561;27;20023;-68
2023/04/04 14:49:26;;;;;;;3.10;1.00;;;;;;;;;;5345074;27;20031;-68
2023/04/04 14:51:57;;;;;;;2.92;0.88;;;;;;;;;;5307324;27;20293;-68
2023/04/04 14:54:29;;;;;;;2.60;1.10;;;;;;;;;;5302898;28;20043;-69
2023/04/04 14:57:01;;;;;;;2.83;0.88;;;;;;;;;;5302442;28;20043;-68
2023/04/04 14:59:32;;;;;;;3.08;1.00;;;;;;;;;;5302998;28;20102;-68
2023/04/04 15:02:03;;;;;;;2.83;1.10;;;;;;;;;;5303264;28;20028;-69
2023/04/04 15:04:34;;;;;;;3.22;1.15;;;;;;;;;;5302289;28;20028;-68
2023/04/04 15:07:06;;;;;;;3.97;0.90;;;;;;;;;;5303720;28;20043;-69
2023/04/04 15:09:37;;;;;;;3.38;0.95;;;;;;;;;;5303276;28;20032;-69
2023/04/04 15:12:08;;;;;;;4.40;1.15;;;;;;;;;;5302287;28;20265;-69